sensor_id;sensor_type;location;lat;lon;timestamp;pressure;altitude;pressure_sealevel;temperature;humidity
56040;BME280;43937;41.366;2.072;2022-09-24T00:01:31;100667.38;;;18.52;100.00
56040;BME280;43937;41.366;2.072;2022-09-24T00:03:59;100627.44;;;18.61;100.00
56040;BME280;43937;41.366;2.072;2022-09-24T00:06:26;100638.03;;;18.64;100.00
56040;BME280;43937;41.366;2.072;2022-09-24T00:08:53;100631.00;;;18.68;100.00
56040;BME280;43937;41.366;2.072;2022-09-24T00:11:20;100620.84;;;18.62;100.00
56040;BME280;43937;41.366;2.072;2022-09-24T00:13:50;100602.78;;;18.73;100.00
56040;BME280;43937;41.366;2.072;2022-09-24T00:16:17;100593.84;;;18.77;100.00
56040;BME280;43937;41.366;2.072;2022-09-24T00:18:43;100604.50;;;18.67;100.00
56040;BME280;43937;41.366;2.072;2022-09-24T00:21:17;100623.31;;;18.77;100.00
56040;BME280;43937;41.366;2.072;2022-09-24T00:23:43;100647.88;;;18.85;100.00
56040;BME280;43937;41.366;2.072;2022-09-24T00:26:11;100631.94;;;18.87;100.00
56040;BME280;43937;41.366;2.072;2022-09-24T00:28:55;100626.81;;;18.91;100.00
56040;BME280;43937;41.366;2.072;2022-09-24T00:31:21;100613.47;;;18.88;100.00
56040;BME280;43937;41.366;2.072;2022-09-24T00:33:46;100590.81;;;18.86;100.00
56040;BME280;43937;41.366;2.072;2022-09-24T00:36:14;100572.28;;;18.93;100.00
56040;BME280;43937;41.366;2.072;2022-09-24T00:38:39;100616.19;;;18.94;99.14
56040;BME280;43937;41.366;2.072;2022-09-24T00:41:05;100623.41;;;18.95;99.07
56040;BME280;43937;41.366;2.072;2022-09-24T00:43:33;100614.78;;;19.10;100.00
56040;BME280;43937;41.366;2.072;2022-09-24T00:48:45;100588.94;;;19.05;97.71
56040;BME280;43937;41.366;2.072;2022-09-24T00:51:14;100585.31;;;19.29;97.40
56040;BME280;43937;41.366;2.072;2022-09-24T00:53:41;100568.06;;;19.34;96.91
56040;BME280;43937;41.366;2.072;2022-09-24T00:56:10;100539.84;;;19.32;97.14
56040;BME280;43937;41.366;2.072;2022-09-24T00:58:41;100531.56;;;19.32;98.27
56040;BME280;43937;41.366;2.072;2022-09-24T01:01:08;100519.31;;;19.28;98.88
56040;BME280;43937;41.366;2.072;2022-09-24T01:03:36;100517.47;;;19.21;98.59
56040;BME280;43937;41.366;2.072;2022-09-24T01:06:10;100516.31;;;19.29;98.41
56040;BME280;43937;41.366;2.072;2022-09-24T01:08:36;100494.41;;;19.16;98.27
56040;BME280;43937;41.366;2.072;2022-09-24T01:21:38;100495.84;;;19.55;99.99
56040;BME280;43937;41.366;2.072;2022-09-24T01:25:04;100467.69;;;19.47;100.00
56040;BME280;43937;41.366;2.072;2022-09-24T01:35:03;100492.91;;;19.50;100.00
56040;BME280;43937;41.366;2.072;2022-09-24T01:37:33;100499.66;;;19.54;98.63
56040;BME280;43937;41.366;2.072;2022-09-24T01:40:01;100504.13;;;19.55;99.57
56040;BME280;43937;41.366;2.072;2022-09-24T01:42:28;100505.13;;;19.61;100.00
56040;BME280;43937;41.366;2.072;2022-09-24T01:44:55;100497.06;;;19.59;100.00
56040;BME280;43937;41.366;2.072;2022-09-24T01:47:33;100485.94;;;19.66;100.00
56040;BME280;43937;41.366;2.072;2022-09-24T01:50:05;100465.84;;;19.59;100.00
56040;BME280;43937;41.366;2.072;2022-09-24T01:52:37;100461.47;;;19.51;99.97
56040;BME280;43937;41.366;2.072;2022-09-24T01:55:05;100470.56;;;19.40;100.00
56040;BME280;43937;41.366;2.072;2022-09-24T01:57:38;100475.66;;;19.36;100.00
56040;BME280;43937;41.366;2.072;2022-09-24T02:00:10;100460.56;;;19.39;100.00
56040;BME280;43937;41.366;2.072;2022-09-24T02:02:45;100469.41;;;19.29;100.00
56040;BME280;43937;41.366;2.072;2022-09-24T02:05:20;100459.81;;;19.13;100.00
56040;BME280;43937;41.366;2.072;2022-09-24T02:10:33;100465.97;;;19.34;100.00
56040;BME280;43937;41.366;2.072;2022-09-24T02:13:02;100468.47;;;19.35;100.00
56040;BME280;43937;41.366;2.072;2022-09-24T02:15:33;100460.44;;;19.34;99.73
56040;BME280;43937;41.366;2.072;2022-09-24T02:18:04;100464.56;;;19.43;99.78
56040;BME280;43937;41.366;2.072;2022-09-24T02:23:00;100477.75;;;19.41;95.86
56040;BME280;43937;41.366;2.072;2022-09-24T02:25:34;100479.88;;;19.39;96.26
56040;BME280;43937;41.366;2.072;2022-09-24T02:28:01;100470.09;;;19.43;97.38
56040;BME280;43937;41.366;2.072;2022-09-24T02:30:27;100474.06;;;19.47;97.23
56040;BME280;43937;41.366;2.072;2022-09-24T02:32:57;100477.19;;;19.51;96.66
56040;BME280;43937;41.366;2.072;2022-09-24T02:35:23;100478.50;;;19.48;95.97
56040;BME280;43937;41.366;2.072;2022-09-24T02:37:48;100475.63;;;19.43;96.41
56040;BME280;43937;41.366;2.072;2022-09-24T02:40:14;100461.41;;;19.21;97.55
56040;BME280;43937;41.366;2.072;2022-09-24T02:42:40;100485.94;;;19.29;97.81
56040;BME280;43937;41.366;2.072;2022-09-24T02:45:07;100471.06;;;19.12;98.35
56040;BME280;43937;41.366;2.072;2022-09-24T02:47:33;100489.41;;;19.25;98.63
56040;BME280;43937;41.366;2.072;2022-09-24T02:49:58;100482.72;;;19.32;98.20
56040;BME280;43937;41.366;2.072;2022-09-24T02:52:24;100475.00;;;19.22;98.54
56040;BME280;43937;41.366;2.072;2022-09-24T02:54:49;100480.34;;;19.17;99.79
56040;BME280;43937;41.366;2.072;2022-09-24T02:57:16;100495.84;;;19.18;99.21
56040;BME280;43937;41.366;2.072;2022-09-24T02:59:42;100503.06;;;19.19;98.23
56040;BME280;43937;41.366;2.072;2022-09-24T03:02:08;100506.28;;;19.16;98.10
56040;BME280;43937;41.366;2.072;2022-09-24T03:04:33;100511.97;;;19.21;97.32
56040;BME280;43937;41.366;2.072;2022-09-24T03:06:59;100536.53;;;19.23;96.33
56040;BME280;43937;41.366;2.072;2022-09-24T03:09:24;100529.94;;;19.24;95.17
56040;BME280;43937;41.366;2.072;2022-09-24T03:11:50;100514.47;;;19.23;95.59
56040;BME280;43937;41.366;2.072;2022-09-24T03:14:16;100531.28;;;19.40;95.27
56040;BME280;43937;41.366;2.072;2022-09-24T03:16:41;100528.72;;;19.38;94.47
56040;BME280;43937;41.366;2.072;2022-09-24T03:19:06;100523.75;;;19.47;94.06
56040;BME280;43937;41.366;2.072;2022-09-24T03:21:32;100529.91;;;19.49;94.06
56040;BME280;43937;41.366;2.072;2022-09-24T03:23:58;100545.53;;;19.55;93.10
56040;BME280;43937;41.366;2.072;2022-09-24T03:26:25;100546.94;;;19.64;92.30
56040;BME280;43937;41.366;2.072;2022-09-24T03:28:50;100542.88;;;19.67;91.19
56040;BME280;43937;41.366;2.072;2022-09-24T03:31:16;100548.78;;;19.71;91.69
56040;BME280;43937;41.366;2.072;2022-09-24T03:33:48;100552.13;;;19.91;91.82
56040;BME280;43937;41.366;2.072;2022-09-24T03:36:19;100535.94;;;19.95;91.29
56040;BME280;43937;41.366;2.072;2022-09-24T03:38:51;100549.53;;;20.08;91.28
56040;BME280;43937;41.366;2.072;2022-09-24T03:41:18;100544.75;;;20.03;92.65
56040;BME280;43937;41.366;2.072;2022-09-24T03:43:44;100539.53;;;19.95;93.05
56040;BME280;43937;41.366;2.072;2022-09-24T03:46:10;100536.16;;;19.93;93.74
56040;BME280;43937;41.366;2.072;2022-09-24T03:48:39;100546.72;;;19.96;94.83
56040;BME280;43937;41.366;2.072;2022-09-24T03:51:06;100545.78;;;20.02;95.24
56040;BME280;43937;41.366;2.072;2022-09-24T03:53:32;100547.31;;;20.17;94.68
56040;BME280;43937;41.366;2.072;2022-09-24T03:55:59;100543.75;;;20.28;94.43
56040;BME280;43937;41.366;2.072;2022-09-24T03:58:27;100547.84;;;20.37;93.48
56040;BME280;43937;41.366;2.072;2022-09-24T04:01:09;100526.78;;;20.24;94.79
56040;BME280;43937;41.366;2.072;2022-09-24T04:03:38;100533.81;;;20.08;94.84
56040;BME280;43937;41.366;2.072;2022-09-24T04:06:05;100550.78;;;19.94;96.32
56040;BME280;43937;41.366;2.072;2022-09-24T04:08:31;100540.75;;;19.62;97.84
56040;BME280;43937;41.366;2.072;2022-09-24T04:10:56;100554.56;;;19.62;99.04
56040;BME280;43937;41.366;2.072;2022-09-24T04:13:22;100543.38;;;19.57;99.50
56040;BME280;43937;41.366;2.072;2022-09-24T04:15:47;100548.03;;;19.57;100.00
56040;BME280;43937;41.366;2.072;2022-09-24T04:18:14;100551.06;;;19.55;100.00
56040;BME280;43937;41.366;2.072;2022-09-24T04:20:40;100549.13;;;19.37;100.00
56040;BME280;43937;41.366;2.072;2022-09-24T04:23:06;100561.31;;;19.48;100.00
56040;BME280;43937;41.366;2.072;2022-09-24T04:27:10;100564.31;;;19.47;100.00
56040;BME280;43937;41.366;2.072;2022-09-24T04:30:10;100567.28;;;19.45;100.00
56040;BME280;43937;41.366;2.072;2022-09-24T04:32:37;100566.16;;;19.53;100.00
56040;BME280;43937;41.366;2.072;2022-09-24T04:35:03;100562.31;;;19.35;100.00
56040;BME280;43937;41.366;2.072;2022-09-24T04:37:28;100573.72;;;19.39;100.00
56040;BME280;43937;41.366;2.072;2022-09-24T04:39:54;100563.00;;;19.31;100.00
56040;BME280;43937;41.366;2.072;2022-09-24T04:42:19;100571.34;;;19.42;100.00
56040;BME280;43937;41.366;2.072;2022-09-24T04:44:45;100567.75;;;19.42;100.00
56040;BME280;43937;41.366;2.072;2022-09-24T04:47:13;100568.75;;;19.48;100.00
56040;BME280;43937;41.366;2.072;2022-09-24T04:49:39;100576.75;;;19.56;100.00
56040;BME280;43937;41.366;2.072;2022-09-24T04:52:05;100578.19;;;19.58;100.00
56040;BME280;43937;41.366;2.072;2022-09-24T04:54:30;100589.28;;;19.77;100.00
56040;BME280;43937;41.366;2.072;2022-09-24T04:56:56;100576.84;;;19.86;100.00
56040;BME280;43937;41.366;2.072;2022-09-24T04:59:21;100577.69;;;19.86;100.00
56040;BME280;43937;41.366;2.072;2022-09-24T05:01:47;100578.03;;;19.90;100.00
56040;BME280;43937;41.366;2.072;2022-09-24T05:06:02;100578.50;;;19.87;100.00
56040;BME280;43937;41.366;2.072;2022-09-24T05:08:28;100572.13;;;20.05;100.00
56040;BME280;43937;41.366;2.072;2022-09-24T05:10:53;100578.16;;;20.13;100.00
56040;BME280;43937;41.366;2.072;2022-09-24T05:13:19;100580.19;;;20.06;100.00
56040;BME280;43937;41.366;2.072;2022-09-24T05:15:45;100570.97;;;20.12;100.00
56040;BME280;43937;41.366;2.072;2022-09-24T05:18:10;100574.66;;;20.06;100.00
56040;BME280;43937;41.366;2.072;2022-09-24T05:20:36;100575.03;;;20.10;100.00
56040;BME280;43937;41.366;2.072;2022-09-24T05:23:01;100576.19;;;20.02;100.00
56040;BME280;43937;41.366;2.072;2022-09-24T05:25:27;100569.13;;;20.06;100.00
56040;BME280;43937;41.366;2.072;2022-09-24T05:27:53;100570.50;;;20.16;100.00
56040;BME280;43937;41.366;2.072;2022-09-24T05:30:21;100564.72;;;20.17;100.00
56040;BME280;43937;41.366;2.072;2022-09-24T05:32:47;100571.19;;;20.11;99.93
56040;BME280;43937;41.366;2.072;2022-09-24T05:35:16;100545.31;;;19.75;100.00
56040;BME280;43937;41.366;2.072;2022-09-24T05:37:42;100581.88;;;20.07;99.81
56040;BME280;43937;41.366;2.072;2022-09-24T05:40:08;100583.25;;;19.98;100.00
56040;BME280;43937;41.366;2.072;2022-09-24T05:43:01;100574.13;;;19.98;100.00
56040;BME280;43937;41.366;2.072;2022-09-24T05:45:30;100573.31;;;20.09;99.81
56040;BME280;43937;41.366;2.072;2022-09-24T05:47:56;100573.06;;;19.99;99.64
56040;BME280;43937;41.366;2.072;2022-09-24T05:50:24;100581.41;;;20.10;98.86
56040;BME280;43937;41.366;2.072;2022-09-24T05:52:49;100580.69;;;20.15;98.16
56040;BME280;43937;41.366;2.072;2022-09-24T05:55:15;100594.94;;;20.30;96.82
56040;BME280;43937;41.366;2.072;2022-09-24T05:57:52;100597.03;;;20.17;96.88
56040;BME280;43937;41.366;2.072;2022-09-24T06:00:30;100600.28;;;20.13;97.66
56040;BME280;43937;41.366;2.072;2022-09-24T06:03:10;100587.34;;;20.26;97.41
56040;BME280;43937;41.366;2.072;2022-09-24T06:06:14;100588.09;;;20.33;97.12
56040;BME280;43937;41.366;2.072;2022-09-24T06:08:40;100586.97;;;20.22;98.35
56040;BME280;43937;41.366;2.072;2022-09-24T06:11:39;100583.97;;;20.24;98.45
56040;BME280;43937;41.366;2.072;2022-09-24T06:16:18;100602.41;;;20.42;98.78
56040;BME280;43937;41.366;2.072;2022-09-24T06:18:44;100600.13;;;20.39;97.95
56040;BME280;43937;41.366;2.072;2022-09-24T06:21:11;100598.63;;;20.54;98.09
56040;BME280;43937;41.366;2.072;2022-09-24T06:23:38;100606.50;;;20.57;96.96
56040;BME280;43937;41.366;2.072;2022-09-24T06:26:05;100596.56;;;20.50;96.96
56040;BME280;43937;41.366;2.072;2022-09-24T06:28:35;100602.53;;;20.65;96.61
56040;BME280;43937;41.366;2.072;2022-09-24T06:31:02;100591.03;;;20.80;96.17
56040;BME280;43937;41.366;2.072;2022-09-24T06:33:28;100583.34;;;20.82;96.12
56040;BME280;43937;41.366;2.072;2022-09-24T06:35:58;100587.03;;;20.88;95.75
56040;BME280;43937;41.366;2.072;2022-09-24T06:38:24;100592.22;;;20.84;95.44
56040;BME280;43937;41.366;2.072;2022-09-24T06:40:49;100575.13;;;20.75;96.92
56040;BME280;43937;41.366;2.072;2022-09-24T06:43:15;100595.72;;;20.79;96.79
56040;BME280;43937;41.366;2.072;2022-09-24T06:45:42;100591.38;;;20.84;96.43
56040;BME280;43937;41.366;2.072;2022-09-24T06:48:10;100601.16;;;21.10;95.66
56040;BME280;43937;41.366;2.072;2022-09-24T06:50:39;100597.91;;;21.13;93.91
56040;BME280;43937;41.366;2.072;2022-09-24T06:53:06;100612.81;;;21.12;93.77
56040;BME280;43937;41.366;2.072;2022-09-24T06:55:33;100616.56;;;21.17;93.56
56040;BME280;43937;41.366;2.072;2022-09-24T07:00:32;100622.34;;;21.16;93.24
56040;BME280;43937;41.366;2.072;2022-09-24T07:02:57;100602.59;;;21.24;92.74
56040;BME280;43937;41.366;2.072;2022-09-24T07:05:23;100612.25;;;21.33;92.10
56040;BME280;43937;41.366;2.072;2022-09-24T07:07:48;100596.22;;;21.23;91.41
56040;BME280;43937;41.366;2.072;2022-09-24T07:10:14;100589.50;;;21.19;90.33
56040;BME280;43937;41.366;2.072;2022-09-24T07:12:41;100601.06;;;21.28;91.12
56040;BME280;43937;41.366;2.072;2022-09-24T07:15:07;100605.25;;;21.19;91.67
56040;BME280;43937;41.366;2.072;2022-09-24T07:17:33;100575.28;;;20.92;91.58
56040;BME280;43937;41.366;2.072;2022-09-24T07:19:58;100605.75;;;21.16;90.83
56040;BME280;43937;41.366;2.072;2022-09-24T07:22:24;100604.16;;;21.08;91.12
56040;BME280;43937;41.366;2.072;2022-09-24T07:24:49;100617.84;;;20.79;92.88
56040;BME280;43937;41.366;2.072;2022-09-24T07:27:15;100586.13;;;20.94;91.80
56040;BME280;43937;41.366;2.072;2022-09-24T07:29:41;100606.47;;;21.23;90.91
56040;BME280;43937;41.366;2.072;2022-09-24T07:32:06;100606.25;;;21.36;90.74
56040;BME280;43937;41.366;2.072;2022-09-24T07:34:32;100619.09;;;21.66;89.32
56040;BME280;43937;41.366;2.072;2022-09-24T07:36:58;100626.06;;;21.80;90.32
56040;BME280;43937;41.366;2.072;2022-09-24T07:39:24;100622.19;;;21.81;89.87
56040;BME280;43937;41.366;2.072;2022-09-24T07:41:50;100620.31;;;21.70;90.41
56040;BME280;43937;41.366;2.072;2022-09-24T07:44:20;100632.00;;;21.60;90.64
56040;BME280;43937;41.366;2.072;2022-09-24T07:46:50;100638.97;;;21.63;90.69
56040;BME280;43937;41.366;2.072;2022-09-24T07:49:15;100634.75;;;21.72;90.63
56040;BME280;43937;41.366;2.072;2022-09-24T07:51:41;100636.47;;;21.61;90.19
56040;BME280;43937;41.366;2.072;2022-09-24T07:54:07;100634.66;;;21.67;90.42
56040;BME280;43937;41.366;2.072;2022-09-24T07:56:32;100638.63;;;21.59;90.71
56040;BME280;43937;41.366;2.072;2022-09-24T07:58:58;100652.59;;;21.64;89.99
56040;BME280;43937;41.366;2.072;2022-09-24T08:01:23;100645.13;;;21.53;90.32
56040;BME280;43937;41.366;2.072;2022-09-24T08:03:51;100647.06;;;21.64;90.29
56040;BME280;43937;41.366;2.072;2022-09-24T08:06:17;100640.69;;;21.64;90.32
56040;BME280;43937;41.366;2.072;2022-09-24T08:08:42;100635.97;;;21.41;90.10
56040;BME280;43937;41.366;2.072;2022-09-24T08:11:10;100642.63;;;21.52;91.15
56040;BME280;43937;41.366;2.072;2022-09-24T08:13:37;100641.59;;;21.93;90.69
56040;BME280;43937;41.366;2.072;2022-09-24T08:16:05;100640.34;;;22.12;87.74
56040;BME280;43937;41.366;2.072;2022-09-24T08:18:31;100634.22;;;21.99;87.87
56040;BME280;43937;41.366;2.072;2022-09-24T08:21:08;100655.44;;;21.93;88.06
56040;BME280;43937;41.366;2.072;2022-09-24T08:23:36;100659.63;;;22.19;87.58
56040;BME280;43937;41.366;2.072;2022-09-24T08:26:02;100647.75;;;22.35;84.61
56040;BME280;43937;41.366;2.072;2022-09-24T08:28:29;100664.91;;;22.61;83.69
56040;BME280;43937;41.366;2.072;2022-09-24T08:30:59;100654.09;;;22.93;82.36
56040;BME280;43937;41.366;2.072;2022-09-24T08:33:26;100672.34;;;23.35;78.23
56040;BME280;43937;41.366;2.072;2022-09-24T08:35:52;100661.13;;;23.46;78.45
56040;BME280;43937;41.366;2.072;2022-09-24T08:38:17;100664.41;;;23.26;77.72
56040;BME280;43937;41.366;2.072;2022-09-24T08:41:00;100650.72;;;23.37;78.25
56040;BME280;43937;41.366;2.072;2022-09-24T08:46:23;100652.50;;;23.65;73.19
56040;BME280;43937;41.366;2.072;2022-09-24T08:52:35;100669.59;;;24.56;68.68
56040;BME280;43937;41.366;2.072;2022-09-24T08:55:13;100665.03;;;24.45;71.78
56040;BME280;43937;41.366;2.072;2022-09-24T08:57:45;100673.06;;;24.68;68.15
56040;BME280;43937;41.366;2.072;2022-09-24T09:00:14;100672.06;;;25.07;72.43
56040;BME280;43937;41.366;2.072;2022-09-24T09:02:44;100675.31;;;25.26;65.63
56040;BME280;43937;41.366;2.072;2022-09-24T09:08:07;100680.03;;;24.98;67.18
56040;BME280;43937;41.366;2.072;2022-09-24T09:10:39;100683.47;;;25.05;67.41
56040;BME280;43937;41.366;2.072;2022-09-24T09:13:12;100675.53;;;24.65;66.82
56040;BME280;43937;41.366;2.072;2022-09-24T09:15:44;100673.88;;;24.91;66.24
56040;BME280;43937;41.366;2.072;2022-09-24T09:23:17;100666.91;;;25.58;62.88
56040;BME280;43937;41.366;2.072;2022-09-24T09:25:50;100663.06;;;26.17;60.42
56040;BME280;43937;41.366;2.072;2022-09-24T09:28:17;100652.75;;;26.12;59.08
56040;BME280;43937;41.366;2.072;2022-09-24T09:37:56;100606.63;;;25.89;59.23
56040;BME280;43937;41.366;2.072;2022-09-24T09:40:40;100655.03;;;25.73;60.35
56040;BME280;43937;41.366;2.072;2022-09-24T09:43:11;100657.91;;;24.81;62.95
56040;BME280;43937;41.366;2.072;2022-09-24T09:48:28;100659.50;;;23.67;67.53
56040;BME280;43937;41.366;2.072;2022-09-24T09:51:03;100675.09;;;23.51;69.14
56040;BME280;43937;41.366;2.072;2022-09-24T09:53:30;100671.72;;;23.66;68.58
56040;BME280;43937;41.366;2.072;2022-09-24T09:56:01;100674.19;;;23.46;69.00
56040;BME280;43937;41.366;2.072;2022-09-24T10:01:37;100678.81;;;23.23;69.77
56040;BME280;43937;41.366;2.072;2022-09-24T10:04:05;100662.94;;;22.90;70.37
56040;BME280;43937;41.366;2.072;2022-09-24T10:06:33;100669.16;;;23.09;70.83
56040;BME280;43937;41.366;2.072;2022-09-24T10:09:14;100669.13;;;23.43;68.16
56040;BME280;43937;41.366;2.072;2022-09-24T10:11:39;100674.41;;;23.61;68.23
56040;BME280;43937;41.366;2.072;2022-09-24T10:15:01;100654.31;;;23.20;67.25
56040;BME280;43937;41.366;2.072;2022-09-24T10:20:23;100647.38;;;23.57;66.14
56040;BME280;43937;41.366;2.072;2022-09-24T10:22:57;100667.94;;;23.39;66.81
56040;BME280;43937;41.366;2.072;2022-09-24T10:25:27;100664.41;;;23.60;66.08
56040;BME280;43937;41.366;2.072;2022-09-24T10:28:59;100662.41;;;23.72;65.64
56040;BME280;43937;41.366;2.072;2022-09-24T10:33:04;100642.84;;;23.50;65.20
56040;BME280;43937;41.366;2.072;2022-09-24T10:35:35;100644.19;;;24.04;64.68
56040;BME280;43937;41.366;2.072;2022-09-24T10:38:20;100644.75;;;24.28;63.30
56040;BME280;43937;41.366;2.072;2022-09-24T10:40:46;100640.88;;;24.51;62.23
56040;BME280;43937;41.366;2.072;2022-09-24T10:44:50;100633.88;;;24.26;62.50
56040;BME280;43937;41.366;2.072;2022-09-24T11:02:13;100598.34;;;25.15;57.96
56040;BME280;43937;41.366;2.072;2022-09-24T11:04:49;100591.97;;;25.19;59.44
56040;BME280;43937;41.366;2.072;2022-09-24T11:13:01;100559.00;;;25.53;57.41
56040;BME280;43937;41.366;2.072;2022-09-24T11:25:39;100535.81;;;25.90;53.98
56040;BME280;43937;41.366;2.072;2022-09-24T11:33:27;100569.38;;;26.21;54.07
56040;BME280;43937;41.366;2.072;2022-09-24T11:56:32;100581.69;;;26.45;55.58
56040;BME280;43937;41.366;2.072;2022-09-24T11:59:32;100570.03;;;26.94;51.38
56040;BME280;43937;41.366;2.072;2022-09-24T12:02:02;100572.28;;;26.72;52.38
56040;BME280;43937;41.366;2.072;2022-09-24T12:04:59;100572.16;;;26.21;52.44
56040;BME280;43937;41.366;2.072;2022-09-24T12:07:36;100578.06;;;25.67;51.93
56040;BME280;43937;41.366;2.072;2022-09-24T12:10:23;100571.56;;;25.56;52.85
56040;BME280;43937;41.366;2.072;2022-09-24T12:13:01;100578.16;;;25.82;52.72
56040;BME280;43937;41.366;2.072;2022-09-24T12:15:40;100566.06;;;25.19;52.25
56040;BME280;43937;41.366;2.072;2022-09-24T12:18:25;100559.22;;;25.42;51.56
56040;BME280;43937;41.366;2.072;2022-09-24T12:21:01;100542.66;;;25.20;52.35
56040;BME280;43937;41.366;2.072;2022-09-24T12:23:30;100548.41;;;25.08;53.62
56040;BME280;43937;41.366;2.072;2022-09-24T12:27:51;100541.69;;;25.04;54.73
56040;BME280;43937;41.366;2.072;2022-09-24T12:30:39;100544.78;;;25.07;55.17
56040;BME280;43937;41.366;2.072;2022-09-24T12:33:34;100534.69;;;25.33;55.19
56040;BME280;43937;41.366;2.072;2022-09-24T12:36:12;100533.94;;;25.48;54.81
56040;BME280;43937;41.366;2.072;2022-09-24T12:41:41;100512.72;;;25.05;56.67
56040;BME280;43937;41.366;2.072;2022-09-24T12:46:46;100507.56;;;25.19;55.98
56040;BME280;43937;41.366;2.072;2022-09-24T12:51:50;100512.72;;;25.42;55.01
56040;BME280;43937;41.366;2.072;2022-09-24T12:57:48;100494.66;;;25.07;53.54
56040;BME280;43937;41.366;2.072;2022-09-24T13:02:57;100496.53;;;25.39;54.59
56040;BME280;43937;41.366;2.072;2022-09-24T13:08:40;100479.34;;;25.57;55.72
56040;BME280;43937;41.366;2.072;2022-09-24T13:10:59;100487.47;;;25.74;55.25
56040;BME280;43937;41.366;2.072;2022-09-24T13:13:30;100486.00;;;25.56;54.55
56040;BME280;43937;41.366;2.072;2022-09-24T13:16:03;100471.69;;;25.32;55.52
56040;BME280;43937;41.366;2.072;2022-09-24T13:18:31;100470.94;;;25.42;55.69
56040;BME280;43937;41.366;2.072;2022-09-24T13:21:07;100463.22;;;25.70;54.86
56040;BME280;43937;41.366;2.072;2022-09-24T13:23:46;100477.66;;;25.51;55.81
56040;BME280;43937;41.366;2.072;2022-09-24T13:26:28;100460.94;;;25.56;55.16
56040;BME280;43937;41.366;2.072;2022-09-24T13:28:58;100475.97;;;25.55;51.96
56040;BME280;43937;41.366;2.072;2022-09-24T13:36:47;100482.69;;;25.54;54.58
56040;BME280;43937;41.366;2.072;2022-09-24T13:39:41;100476.72;;;25.35;54.14
56040;BME280;43937;41.366;2.072;2022-09-24T13:44:33;100472.00;;;25.41;54.94
56040;BME280;43937;41.366;2.072;2022-09-24T13:47:17;100479.06;;;25.06;54.84
56040;BME280;43937;41.366;2.072;2022-09-24T13:49:47;100457.31;;;24.61;56.34
56040;BME280;43937;41.366;2.072;2022-09-24T13:52:34;100463.03;;;24.81;54.46
56040;BME280;43937;41.366;2.072;2022-09-24T13:55:14;100459.22;;;24.98;52.96
56040;BME280;43937;41.366;2.072;2022-09-24T13:57:45;100451.72;;;24.98;54.65
56040;BME280;43937;41.366;2.072;2022-09-24T14:02:42;100427.34;;;24.41;54.85
56040;BME280;43937;41.366;2.072;2022-09-24T14:05:16;100426.28;;;24.79;55.05
56040;BME280;43937;41.366;2.072;2022-09-24T14:07:58;100428.34;;;24.25;57.95
56040;BME280;43937;41.366;2.072;2022-09-24T14:10:25;100419.72;;;24.58;56.67
56040;BME280;43937;41.366;2.072;2022-09-24T14:15:48;100412.22;;;24.59;55.78
56040;BME280;43937;41.366;2.072;2022-09-24T14:18:14;100418.16;;;24.73;56.08
56040;BME280;43937;41.366;2.072;2022-09-24T14:20:39;100403.41;;;24.77;54.78
56040;BME280;43937;41.366;2.072;2022-09-24T14:23:05;100405.34;;;24.72;54.36
56040;BME280;43937;41.366;2.072;2022-09-24T14:25:35;100403.66;;;24.71;55.71
56040;BME280;43937;41.366;2.072;2022-09-24T14:28:04;100399.13;;;24.59;55.98
56040;BME280;43937;41.366;2.072;2022-09-24T14:30:31;100420.94;;;24.73;53.99
56040;BME280;43937;41.366;2.072;2022-09-24T14:33:04;100398.88;;;24.29;53.74
56040;BME280;43937;41.366;2.072;2022-09-24T14:35:44;100396.34;;;24.54;54.98
56040;BME280;43937;41.366;2.072;2022-09-24T14:40:15;100393.19;;;24.88;55.67
56040;BME280;43937;41.366;2.072;2022-09-24T14:45:21;100400.66;;;24.40;56.39
56040;BME280;43937;41.366;2.072;2022-09-24T14:48:01;100391.22;;;24.09;56.99
56040;BME280;43937;41.366;2.072;2022-09-24T14:53:00;100408.81;;;23.65;57.80
56040;BME280;43937;41.366;2.072;2022-09-24T14:55:42;100409.31;;;23.84;56.84
56040;BME280;43937;41.366;2.072;2022-09-24T14:58:30;100419.34;;;24.12;58.04
56040;BME280;43937;41.366;2.072;2022-09-24T15:01:15;100402.97;;;24.53;56.64
56040;BME280;43937;41.366;2.072;2022-09-24T15:03:53;100410.28;;;24.27;57.92
56040;BME280;43937;41.366;2.072;2022-09-24T15:06:22;100404.31;;;24.13;57.18
56040;BME280;43937;41.366;2.072;2022-09-24T15:11:34;100400.28;;;23.99;58.01
56040;BME280;43937;41.366;2.072;2022-09-24T15:16:43;100397.69;;;23.60;58.74
56040;BME280;43937;41.366;2.072;2022-09-24T15:19:20;100417.34;;;23.81;58.41
56040;BME280;43937;41.366;2.072;2022-09-24T15:21:50;100402.63;;;23.80;59.34
56040;BME280;43937;41.366;2.072;2022-09-24T15:24:17;100398.50;;;23.61;60.07
56040;BME280;43937;41.366;2.072;2022-09-24T15:26:46;100402.75;;;23.68;60.08
56040;BME280;43937;41.366;2.072;2022-09-24T15:29:20;100414.03;;;23.84;60.13
56040;BME280;43937;41.366;2.072;2022-09-24T15:31:48;100407.09;;;23.59;61.03
56040;BME280;43937;41.366;2.072;2022-09-24T15:35:44;100399.81;;;23.53;61.69
56040;BME280;43937;41.366;2.072;2022-09-24T15:38:14;100401.06;;;23.67;62.48
56040;BME280;43937;41.366;2.072;2022-09-24T15:40:40;100405.66;;;23.57;62.09
56040;BME280;43937;41.366;2.072;2022-09-24T15:45:13;100404.25;;;23.54;60.07
56040;BME280;43937;41.366;2.072;2022-09-24T15:47:39;100404.13;;;23.44;62.28
56040;BME280;43937;41.366;2.072;2022-09-24T15:50:05;100385.63;;;23.27;62.92
56040;BME280;43937;41.366;2.072;2022-09-24T15:52:31;100390.16;;;23.61;61.53
56040;BME280;43937;41.366;2.072;2022-09-24T15:54:59;100382.09;;;23.59;60.48
56040;BME280;43937;41.366;2.072;2022-09-24T15:57:26;100389.66;;;23.42;61.43